Aviation Digital Data Service (ADDS)

Output produced by METARs form (1752 UTC 01 March 2017)
found at http://aviationweather.gov/adds/metars/
 
KSAN 011734Z 0118/0224 VRB04KT P6SM SKC 
     FM012000 30010KT P6SM SKC 
     FM020100 VRB04KT P6SM SKC